Time;durP1;ratioP1;P1;durP2;ratioP2;P2;SDS_P1;SDS_P2;PMS_P1;PMS_P2;Temp;Humidity;BMP_temperature;BMP_pressure;BME280_temperature;BME280_humidity;BME280_pressure;Samples;Min_cycle;Max_cycle;Signal;HPM_P1;HPM_P2
2023/03/20 00:01:28;;;;;;;11.32;7.97;;;9.80;99.90;;;;;;5057566;28;20135;-72
2023/03/20 00:03:56;;;;;;;9.93;7.05;;;9.80;99.90;;;;;;5083181;28;20044;-73
2023/03/20 00:06:26;;;;;;;9.77;7.15;;;9.80;99.90;;;;;;5095465;28;20036;-73
2023/03/20 00:08:56;;;;;;;11.15;6.88;;;9.70;99.90;;;;;;5094853;28;20346;-73
2023/03/20 00:11:40;;;;;;;8.55;6.38;;;9.70;99.90;;;;;;5074697;28;20040;-72
2023/03/20 00:14:11;;;;;;;8.63;6.10;;;9.60;99.90;;;;;;5074962;28;20066;-72
2023/03/20 00:16:41;;;;;;;10.23;5.63;;;9.60;99.90;;;;;;5079035;28;20064;-73
2023/03/20 00:19:22;;;;;;;9.75;5.97;;;9.60;99.90;;;;;;5087377;28;20422;-73
2023/03/20 00:21:51;;;;;;;11.05;5.75;;;9.60;99.90;;;;;;5074896;28;20137;-73
2023/03/20 00:24:18;;;;;;;8.70;6.20;;;9.60;99.90;;;;;;5111261;28;20058;-72
2023/03/20 00:26:48;;;;;;;9.43;6.80;;;9.60;99.90;;;;;;5058098;28;20532;-73
2023/03/20 00:29:29;;;;;;;9.30;6.15;;;9.60;99.90;;;;;;5069767;28;20070;-73
2023/03/20 00:31:58;;;;;;;9.27;6.83;;;9.60;99.90;;;;;;5095647;28;20056;-72
2023/03/20 00:34:31;;;;;;;9.15;6.15;;;9.70;99.90;;;;;;5079348;28;20447;-72
2023/03/20 00:36:58;;;;;;;11.25;6.63;;;9.70;99.90;;;;;;5113836;28;20136;-73
2023/03/20 00:39:29;;;;;;;8.45;5.70;;;9.80;99.90;;;;;;5078741;28;20114;-73
2023/03/20 00:42:00;;;;;;;8.23;5.60;;;9.80;99.90;;;;;;5058744;28;20043;-73
2023/03/20 00:44:43;;;;;;;7.30;5.80;;;9.90;99.90;;;;;;5108127;28;20379;-72
2023/03/20 00:47:20;;;;;;;7.93;5.50;;;9.90;99.90;;;;;;5078563;28;20497;-73
2023/03/20 00:49:50;;;;;;;13.13;5.90;;;9.90;99.90;;;;;;5094233;28;20036;-74
2023/03/20 00:52:18;;;;;;;8.73;5.75;;;9.80;99.90;;;;;;5078406;28;20096;-74
2023/03/20 00:54:46;;;;;;;8.45;5.45;;;9.80;99.90;;;;;;5055628;28;20040;-75
2023/03/20 00:57:37;;;;;;;11.88;5.55;;;9.80;99.90;;;;;;5088286;28;20125;-71
2023/03/20 01:00:38;;;;;;;9.90;5.50;;;9.80;99.90;;;;;;5084846;28;20040;-74
2023/03/20 01:03:19;;;;;;;7.55;5.40;;;9.80;99.90;;;;;;5043819;28;20514;-71
2023/03/20 01:05:48;;;;;;;9.77;6.32;;;9.70;99.90;;;;;;5075293;28;20101;-73
2023/03/20 01:08:18;;;;;;;8.23;5.75;;;9.60;99.90;;;;;;5094763;28;20035;-73
2023/03/20 01:10:47;;;;;;;8.02;5.53;;;9.60;99.90;;;;;;5094268;28;20089;-72
2023/03/20 01:13:22;;;;;;;7.80;5.63;;;9.60;99.90;;;;;;5094645;28;20637;-75
2023/03/20 01:15:51;;;;;;;7.53;5.35;;;9.60;99.90;;;;;;5094751;28;20118;-74
2023/03/20 01:18:21;;;;;;;9.93;6.00;;;9.60;99.90;;;;;;5078071;28;20509;-73
2023/03/20 01:20:51;;;;;;;7.95;5.97;;;9.60;99.90;;;;;;5081110;28;20052;-74
2023/03/20 01:23:21;;;;;;;8.25;5.97;;;9.60;99.90;;;;;;5075083;28;20055;-73
2023/03/20 01:25:49;;;;;;;8.20;5.82;;;9.70;99.90;;;;;;5058117;28;20044;-73
2023/03/20 01:28:22;;;;;;;9.32;6.13;;;9.60;99.90;;;;;;5089158;28;20043;-72
2023/03/20 01:30:50;;;;;;;7.95;5.55;;;9.70;99.90;;;;;;5076394;28;20567;-74
2023/03/20 01:33:20;;;;;;;9.73;6.13;;;9.70;99.90;;;;;;5093936;28;20407;-72
2023/03/20 01:35:52;;;;;;;9.15;5.80;;;9.70;99.90;;;;;;5093544;28;20472;-72
2023/03/20 01:38:23;;;;;;;11.80;6.35;;;9.80;99.90;;;;;;5076111;28;20049;-72
2023/03/20 01:41:03;;;;;;;7.78;5.80;;;9.70;99.90;;;;;;5070569;28;20040;-73
2023/03/20 01:43:33;;;;;;;7.43;5.82;;;9.70;99.90;;;;;;5093468;28;20039;-73
2023/03/20 01:46:02;;;;;;;12.20;6.60;;;9.80;99.90;;;;;;5093801;28;20051;-70
2023/03/20 01:48:52;;;;;;;8.60;6.05;;;9.70;99.90;;;;;;5085299;28;20038;-71
2023/03/20 01:51:23;;;;;;;8.57;6.03;;;9.70;99.90;;;;;;5054993;28;20075;-72
2023/03/20 01:54:01;;;;;;;8.50;5.90;;;9.80;99.90;;;;;;5071202;28;20101;-70
2023/03/20 01:56:33;;;;;;;7.30;5.75;;;9.80;99.90;;;;;;5076471;28;20047;-71
2023/03/20 01:59:07;;;;;;;8.15;5.80;;;9.80;99.90;;;;;;5092295;28;20048;-71
2023/03/20 02:01:36;;;;;;;7.25;5.57;;;9.80;99.90;;;;;;5080914;28;20097;-73
2023/03/20 02:04:05;;;;;;;8.57;5.72;;;9.80;99.90;;;;;;5057881;28;20047;-70
2023/03/20 02:06:59;;;;;;;7.72;5.60;;;9.80;99.90;;;;;;5089013;28;20083;-71
2023/03/20 02:09:41;;;;;;;9.43;5.20;;;9.80;99.90;;;;;;5076272;28;20055;-71
2023/03/20 02:12:15;;;;;;;8.02;5.22;;;9.80;99.90;;;;;;5093339;28;20069;-71
2023/03/20 02:14:45;;;;;;;7.90;5.85;;;9.80;99.90;;;;;;5088781;28;20114;-70
2023/03/20 02:17:42;;;;;;;7.63;5.53;;;9.80;99.90;;;;;;5090822;28;20052;-71
2023/03/20 02:20:30;;;;;;;9.70;5.97;;;9.80;99.90;;;;;;5042894;28;20392;-71
2023/03/20 02:23:12;;;;;;;7.82;5.93;;;9.80;99.90;;;;;;5088932;28;20049;-66
2023/03/20 02:25:42;;;;;;;7.20;5.22;;;9.80;99.90;;;;;;5092260;28;20069;-65
2023/03/20 02:28:27;;;;;;;9.52;5.90;;;9.80;99.90;;;;;;5092970;28;20521;-66
2023/03/20 02:31:17;;;;;;;7.05;5.57;;;9.70;99.90;;;;;;5093019;28;20046;-65
2023/03/20 02:34:34;;;;;;;9.77;5.68;;;9.60;99.90;;;;;;5093475;28;20050;-66
2023/03/20 02:37:35;;;;;;;8.30;5.90;;;9.60;99.90;;;;;;5072157;28;20048;-66
2023/03/20 02:40:26;;;;;;;10.57;6.00;;;9.60;99.90;;;;;;5054596;28;20128;-66
2023/03/20 02:43:30;;;;;;;8.15;6.15;;;9.60;99.90;;;;;;4990703;28;20458;-66
2023/03/20 02:46:00;;;;;;;8.77;6.40;;;9.60;99.90;;;;;;4976474;28;20062;-66
2023/03/20 02:48:33;;;;;;;9.70;6.43;;;9.60;99.90;;;;;;5006757;28;20046;-66
2023/03/20 02:51:25;;;;;;;10.73;6.57;;;9.60;99.90;;;;;;4979119;28;20489;-65
2023/03/20 02:54:23;;;;;;;11.68;6.65;;;9.60;99.90;;;;;;4983820;28;20446;-66
2023/03/20 02:57:04;;;;;;;10.20;6.65;;;9.60;99.90;;;;;;4974111;28;20050;-68
2023/03/20 02:59:54;;;;;;;9.55;7.15;;;9.50;99.90;;;;;;5022697;28;20046;-67
2023/03/20 03:02:38;;;;;;;10.00;7.25;;;9.50;99.90;;;;;;4978536;28;20053;-67
2023/03/20 03:05:18;;;;;;;10.15;7.10;;;9.50;99.90;;;;;;4987077;28;20532;-67
2023/03/20 03:07:50;;;;;;;12.73;7.55;;;9.40;99.90;;;;;;4995205;28;20455;-67
2023/03/20 03:10:29;;;;;;;10.20;7.28;;;9.40;99.90;;;;;;5010918;28;20116;-72
2023/03/20 03:12:59;;;;;;;10.38;7.60;;;9.30;99.90;;;;;;5008129;28;20420;-73
2023/03/20 03:15:38;;;;;;;12.60;8.48;;;9.30;99.90;;;;;;4993083;28;20042;-71
2023/03/20 03:18:10;;;;;;;10.73;7.82;;;9.20;99.90;;;;;;5010384;28;20084;-70
2023/03/20 03:20:39;;;;;;;10.20;7.72;;;9.20;99.90;;;;;;5071042;28;20056;-70
2023/03/20 03:23:06;;;;;;;10.27;7.60;;;9.20;99.90;;;;;;5071028;28;20124;-70
2023/03/20 03:25:40;;;;;;;10.43;7.45;;;9.20;99.90;;;;;;5071979;28;20113;-68
2023/03/20 03:28:26;;;;;;;11.70;8.07;;;9.20;99.90;;;;;;5073862;28;20127;-68
2023/03/20 03:30:55;;;;;;;11.95;9.30;;;9.20;99.90;;;;;;5078928;28;20560;-69
2023/03/20 03:33:27;;;;;;;11.90;8.85;;;9.10;99.90;;;;;;5113312;28;20036;-69
2023/03/20 03:36:20;;;;;;;11.35;8.55;;;9.00;99.90;;;;;;5096341;28;20035;-68
2023/03/20 03:39:35;;;;;;;11.68;9.23;;;9.00;99.90;;;;;;5096084;28;20067;-69
2023/03/20 03:42:10;;;;;;;13.82;9.65;;;9.00;99.90;;;;;;5014280;28;20057;-68
2023/03/20 03:44:47;;;;;;;11.88;8.60;;;9.00;99.90;;;;;;5030392;28;20049;-70
2023/03/20 03:47:21;;;;;;;12.05;8.77;;;8.90;99.90;;;;;;5013265;28;20058;-71
2023/03/20 03:49:55;;;;;;;12.43;9.65;;;8.90;99.90;;;;;;5009131;28;20129;-73
2023/03/20 03:52:25;;;;;;;14.88;10.25;;;8.90;99.90;;;;;;4995426;28;20399;-70
2023/03/20 03:55:03;;;;;;;13.10;9.80;;;8.80;99.90;;;;;;5012785;28;20415;-71
2023/03/20 03:57:41;;;;;;;13.65;9.70;;;8.70;99.90;;;;;;5029907;28;20119;-72
2023/03/20 04:00:17;;;;;;;15.05;10.43;;;8.70;99.90;;;;;;4997742;28;20057;-71
2023/03/20 04:02:50;;;;;;;16.10;12.07;;;8.70;99.90;;;;;;5029751;28;20049;-70
2023/03/20 04:05:19;;;;;;;15.80;11.07;;;8.60;99.90;;;;;;4996971;28;20080;-71
2023/03/20 04:07:52;;;;;;;19.27;12.07;;;8.60;99.90;;;;;;5009032;28;20451;-73
2023/03/20 04:10:20;;;;;;;17.73;11.65;;;8.60;99.90;;;;;;4977725;28;20484;-71
2023/03/20 04:12:47;;;;;;;15.80;12.10;;;8.60;99.90;;;;;;5014848;28;20044;-70
2023/03/20 04:15:15;;;;;;;16.85;13.05;;;8.60;99.90;;;;;;5041006;28;20059;-72
2023/03/20 04:17:43;;;;;;;19.45;12.90;;;8.50;99.90;;;;;;5087885;28;20039;-73
2023/03/20 04:20:13;;;;;;;17.60;12.43;;;8.50;99.90;;;;;;5094388;28;20051;-71
2023/03/20 04:22:40;;;;;;;18.17;13.38;;;8.50;99.90;;;;;;5099299;28;20063;-71
2023/03/20 04:25:21;;;;;;;18.98;13.25;;;8.50;99.90;;;;;;5087929;28;20035;-70
2023/03/20 04:27:52;;;;;;;19.38;13.93;;;8.50;99.90;;;;;;5039814;28;20036;-73
2023/03/20 04:30:34;;;;;;;20.25;14.50;;;8.50;99.90;;;;;;5072295;28;20036;-72
2023/03/20 04:33:25;;;;;;;26.10;15.23;;;8.50;99.90;;;;;;5087537;28;20470;-72
2023/03/20 04:36:15;;;;;;;18.55;13.73;;;8.60;99.90;;;;;;5070536;28;20055;-72
2023/03/20 04:38:43;;;;;;;20.25;13.82;;;8.60;99.90;;;;;;5073289;28;20481;-73
2023/03/20 04:41:10;;;;;;;19.98;14.38;;;8.60;99.90;;;;;;5055723;28;20123;-72
2023/03/20 04:43:39;;;;;;;20.45;14.93;;;8.60;99.90;;;;;;5061389;28;20474;-74
2023/03/20 04:46:07;;;;;;;20.65;15.32;;;8.50;99.90;;;;;;5077738;28;20513;-73
2023/03/20 04:48:34;;;;;;;21.83;14.85;;;8.50;99.90;;;;;;5076801;28;20040;-73
2023/03/20 04:51:02;;;;;;;21.95;14.82;;;8.60;99.90;;;;;;5075933;28;20050;-73
2023/03/20 04:53:42;;;;;;;22.38;16.05;;;8.50;99.90;;;;;;5041310;28;20040;-73
2023/03/20 04:56:09;;;;;;;25.40;16.42;;;8.50;99.90;;;;;;5056488;28;20043;-73
2023/03/20 04:58:38;;;;;;;20.63;16.13;;;8.40;99.90;;;;;;5056733;28;20097;-73
2023/03/20 05:01:05;;;;;;;21.77;16.17;;;8.40;99.90;;;;;;5077445;28;20123;-73
2023/03/20 05:03:32;;;;;;;25.25;16.73;;;8.40;99.90;;;;;;5059439;28;20486;-68
2023/03/20 05:06:00;;;;;;;29.55;18.42;;;8.40;99.90;;;;;;5093200;28;20406;-66
2023/03/20 05:08:28;;;;;;;23.70;17.30;;;8.40;99.90;;;;;;5094454;28;20043;-66
2023/03/20 05:10:59;;;;;;;27.27;18.88;;;8.30;99.90;;;;;;5094296;28;20043;-66
2023/03/20 05:13:45;;;;;;;27.80;18.75;;;8.40;99.90;;;;;;5104679;28;20132;-67
2023/03/20 05:16:24;;;;;;;25.25;17.40;;;8.30;99.90;;;;;;5073880;28;20060;-66
2023/03/20 05:19:15;;;;;;;26.05;17.55;;;8.30;99.90;;;;;;5067713;28;20505;-68
2023/03/20 05:22:01;;;;;;;23.17;17.73;;;8.30;99.90;;;;;;5099075;28;20501;-68
2023/03/20 05:24:46;;;;;;;25.55;18.77;;;8.30;99.90;;;;;;5076904;28;20138;-66
2023/03/20 05:27:34;;;;;;;25.42;18.98;;;8.30;99.90;;;;;;5085559;28;20068;-67
2023/03/20 05:30:20;;;;;;;26.15;19.17;;;8.30;99.90;;;;;;5086586;28;20035;-67
2023/03/20 05:33:07;;;;;;;25.55;18.92;;;8.30;99.90;;;;;;5098513;27;20051;-67
2023/03/20 05:35:45;;;;;;;26.55;17.77;;;8.30;99.90;;;;;;5092987;28;20115;-67
2023/03/20 05:38:30;;;;;;;25.38;17.55;;;8.30;99.90;;;;;;5089240;28;20098;-66
2023/03/20 05:41:20;;;;;;;26.77;17.70;;;8.40;99.90;;;;;;5080071;28;20054;-65
2023/03/20 05:44:03;;;;;;;26.45;18.23;;;8.40;99.90;;;;;;5092969;28;20043;-68
2023/03/20 05:46:42;;;;;;;25.83;17.90;;;8.40;99.90;;;;;;5075946;28;20086;-66
2023/03/20 05:49:44;;;;;;;24.20;18.05;;;8.50;99.90;;;;;;5079105;28;20735;-69
2023/03/20 05:52:24;;;;;;;23.33;17.58;;;8.50;99.90;;;;;;5055529;28;20050;-67
2023/03/20 05:55:08;;;;;;;25.40;17.83;;;8.50;99.90;;;;;;5074640;28;20048;-67
2023/03/20 05:57:54;;;;;;;23.30;16.35;;;8.60;99.90;;;;;;5105686;28;20172;-68
2023/03/20 06:00:28;;;;;;;22.08;16.75;;;8.70;99.90;;;;;;5062010;28;20051;-73
2023/03/20 06:03:15;;;;;;;23.58;15.75;;;8.70;99.90;;;;;;5080435;28;20040;-72
2023/03/20 06:05:56;;;;;;;23.45;16.38;;;8.70;99.90;;;;;;5058314;28;20128;-73
2023/03/20 06:08:23;;;;;;;21.67;15.57;;;8.80;99.90;;;;;;5072965;28;20047;-71
2023/03/20 06:10:51;;;;;;;20.30;15.45;;;8.80;99.90;;;;;;5090696;28;20055;-73
2023/03/20 06:13:19;;;;;;;22.63;15.68;;;8.80;99.90;;;;;;5093292;28;20133;-72
2023/03/20 06:15:46;;;;;;;20.38;15.35;;;8.80;99.90;;;;;;5067146;28;20048;-72
2023/03/20 06:18:16;;;;;;;21.85;15.85;;;8.80;99.90;;;;;;5090004;28;20316;-71
2023/03/20 06:20:44;;;;;;;21.63;16.17;;;8.80;99.90;;;;;;5072842;28;20044;-73
2023/03/20 06:23:12;;;;;;;22.15;15.80;;;8.80;99.90;;;;;;5074612;28;20078;-72
2023/03/20 06:25:40;;;;;;;21.35;15.30;;;8.80;99.90;;;;;;5092858;28;20489;-71
2023/03/20 06:28:08;;;;;;;23.00;15.27;;;8.90;99.90;;;;;;5092753;28;20050;-72
2023/03/20 06:30:36;;;;;;;25.90;16.67;;;8.80;99.90;;;;;;5093184;28;20530;-73
2023/03/20 06:33:06;;;;;;;21.77;16.15;;;8.90;99.90;;;;;;5075577;28;20048;-71
2023/03/20 06:35:50;;;;;;;21.20;15.57;;;8.90;99.90;;;;;;5072783;28;20085;-72
2023/03/20 06:38:17;;;;;;;22.52;15.75;;;8.90;99.90;;;;;;5070178;28;20035;-71
2023/03/20 06:40:46;;;;;;;20.05;14.68;;;9.00;99.90;;;;;;5080488;28;20036;-71
2023/03/20 06:43:17;;;;;;;;;;;8.90;99.90;;;;;;5069006;28;20048;-71
2023/03/20 06:45:50;;;;;;;22.27;15.00;;;9.00;99.90;;;;;;5092964;28;19931;-70
2023/03/20 06:48:21;;;;;;;20.65;14.35;;;9.10;99.90;;;;;;5059392;28;20051;-71
2023/03/20 06:50:50;;;;;;;19.33;14.40;;;9.10;99.90;;;;;;5051624;28;20054;-71
2023/03/20 06:53:21;;;;;;;19.48;14.35;;;9.10;99.90;;;;;;5064924;28;20051;-70
2023/03/20 06:55:59;;;;;;;19.60;14.48;;;9.20;99.90;;;;;;5091739;28;20099;-67
2023/03/20 06:58:26;;;;;;;18.95;13.18;;;9.20;99.90;;;;;;5074592;28;20046;-67
2023/03/20 07:00:54;;;;;;;17.25;12.50;;;9.30;99.90;;;;;;5081579;28;20176;-66
2023/03/20 07:03:21;;;;;;;21.88;13.85;;;9.40;99.90;;;;;;5066675;28;20047;-68
2023/03/20 07:05:49;;;;;;;16.63;12.70;;;9.50;99.90;;;;;;5085486;28;20047;-66
2023/03/20 07:08:18;;;;;;;16.08;12.32;;;9.40;99.90;;;;;;5091567;28;20355;-67
2023/03/20 07:10:48;;;;;;;16.10;11.88;;;9.50;99.90;;;;;;5091978;28;20509;-68
2023/03/20 07:13:15;;;;;;;17.58;12.95;;;9.50;99.90;;;;;;5110313;28;20127;-67
2023/03/20 07:15:43;;;;;;;16.92;12.13;;;9.60;99.90;;;;;;5092726;28;20043;-67
2023/03/20 07:18:32;;;;;;;14.25;11.18;;;9.60;99.90;;;;;;5076470;28;20127;-68
2023/03/20 07:21:03;;;;;;;15.18;11.38;;;9.60;99.90;;;;;;5056542;28;20092;-66
2023/03/20 07:23:36;;;;;;;12.85;10.05;;;9.70;99.90;;;;;;5091657;28;20066;-66
2023/03/20 07:26:04;;;;;;;13.38;10.52;;;9.90;99.90;;;;;;5074873;28;20038;-69
2023/03/20 07:28:32;;;;;;;13.82;10.93;;;9.80;99.90;;;;;;5093810;28;20137;-69
2023/03/20 07:31:21;;;;;;;14.20;11.38;;;9.80;99.90;;;;;;5079497;28;20114;-66
2023/03/20 07:33:54;;;;;;;14.00;10.80;;;9.90;99.90;;;;;;5096033;28;20050;-67
2023/03/20 07:36:22;;;;;;;12.55;10.15;;;9.80;99.90;;;;;;5096316;28;20061;-67
2023/03/20 07:38:49;;;;;;;14.38;9.93;;;9.80;99.90;;;;;;5089565;28;20073;-69
2023/03/20 07:41:18;;;;;;;12.23;9.18;;;10.00;99.90;;;;;;5089283;28;20040;-68
2023/03/20 07:43:55;;;;;;;15.05;9.43;;;10.00;99.90;;;;;;5078349;28;20069;-68
2023/03/20 07:47:01;;;;;;;12.10;8.77;;;10.00;99.90;;;;;;5072404;28;20044;-69
2023/03/20 07:49:28;;;;;;;11.52;8.95;;;10.00;99.90;;;;;;5092013;28;20044;-69
2023/03/20 07:51:56;;;;;;;13.95;8.95;;;10.10;99.90;;;;;;5081683;28;20119;-69
2023/03/20 07:54:23;;;;;;;11.88;8.52;;;10.20;99.90;;;;;;5060189;28;20686;-68
2023/03/20 07:56:51;;;;;;;12.13;8.80;;;10.40;99.90;;;;;;5080739;28;20548;-69
2023/03/20 07:59:19;;;;;;;11.40;8.30;;;10.30;99.90;;;;;;5092006;28;20362;-70
2023/03/20 08:01:46;;;;;;;11.18;8.15;;;10.40;99.90;;;;;;5102670;28;20410;-70
2023/03/20 08:04:18;;;;;;;10.25;7.28;;;10.60;99.90;;;;;;5095448;28;20538;-68
2023/03/20 08:06:45;;;;;;;;;;;10.60;99.90;;;;;;5112841;28;20070;-69
2023/03/20 08:09:13;;;;;;;9.90;7.25;;;10.50;99.90;;;;;;5106300;28;19938;-68
2023/03/20 08:11:40;;;;;;;11.20;8.48;;;10.70;99.90;;;;;;5076899;28;20535;-68
2023/03/20 08:14:08;;;;;;;11.00;7.00;;;10.80;99.90;;;;;;5073454;28;20048;-71
2023/03/20 08:16:35;;;;;;;9.65;7.75;;;10.90;99.90;;;;;;5085873;28;20139;-70
2023/03/20 08:19:04;;;;;;;9.38;7.45;;;10.70;99.90;;;;;;5104189;28;20435;-71
2023/03/20 08:21:32;;;;;;;11.07;7.53;;;10.70;99.90;;;;;;5071264;28;20058;-66
2023/03/20 08:23:59;;;;;;;12.38;6.75;;;10.80;99.90;;;;;;5057085;28;20634;-67
2023/03/20 08:26:27;;;;;;;9.73;7.40;;;10.90;99.90;;;;;;5097434;28;20410;-67
2023/03/20 08:28:54;;;;;;;8.60;6.80;;;11.00;99.90;;;;;;5090768;28;20040;-66
2023/03/20 08:31:22;;;;;;;8.75;6.50;;;11.00;99.90;;;;;;5093561;28;20069;-67
2023/03/20 08:33:49;;;;;;;10.05;6.53;;;10.90;99.90;;;;;;5106397;28;20043;-69
2023/03/20 08:36:19;;;;;;;8.27;6.10;;;10.90;99.90;;;;;;5076259;28;20056;-69
2023/03/20 08:38:48;;;;;;;8.30;6.20;;;11.10;99.90;;;;;;5057784;28;20278;-70
2023/03/20 08:41:17;;;;;;;9.50;6.35;;;11.10;99.90;;;;;;5084726;28;20082;-72
2023/03/20 08:43:45;;;;;;;9.05;5.90;;;11.30;99.90;;;;;;5100882;28;20042;-71
2023/03/20 08:46:12;;;;;;;9.60;6.25;;;11.50;99.90;;;;;;5093584;28;20054;-70
2023/03/20 08:48:40;;;;;;;7.90;5.88;;;11.50;99.90;;;;;;5077822;28;20075;-73
2023/03/20 08:51:07;;;;;;;7.63;5.40;;;11.90;99.90;;;;;;5075968;28;20143;-72
2023/03/20 08:53:35;;;;;;;7.82;5.57;;;12.10;99.90;;;;;;5094600;28;20562;-73
2023/03/20 08:56:03;;;;;;;9.80;5.43;;;11.80;99.90;;;;;;5089782;28;20043;-69
2023/03/20 08:58:30;;;;;;;7.78;5.43;;;11.90;99.90;;;;;;5112093;28;20486;-70
2023/03/20 09:01:07;;;;;;;8.57;5.32;;;11.80;99.90;;;;;;5110875;28;20063;-72
2023/03/20 09:03:35;;;;;;;7.47;5.43;;;11.90;99.90;;;;;;5093984;28;20031;-72
2023/03/20 09:06:07;;;;;;;7.40;5.40;;;12.00;99.90;;;;;;5102376;27;20040;-72
2023/03/20 09:08:35;;;;;;;10.45;5.63;;;12.20;99.90;;;;;;5092843;28;20044;-70
2023/03/20 09:11:03;;;;;;;6.97;5.38;;;12.30;99.90;;;;;;5078427;28;20039;-74
2023/03/20 09:13:30;;;;;;;10.55;5.28;;;12.00;99.90;;;;;;5086573;28;20040;-70
2023/03/20 09:15:58;;;;;;;8.40;5.20;;;11.90;99.90;;;;;;5100370;28;20070;-71
2023/03/20 09:18:26;;;;;;;7.18;4.88;;;11.90;99.90;;;;;;5078755;28;20440;-71
2023/03/20 09:20:55;;;;;;;8.23;5.47;;;12.00;99.90;;;;;;5099709;28;20044;-70
2023/03/20 09:23:23;;;;;;;7.65;5.43;;;12.00;99.90;;;;;;5086946;28;20036;-71
2023/03/20 09:25:50;;;;;;;7.10;5.30;;;11.80;99.90;;;;;;5068945;28;20043;-67
2023/03/20 09:28:18;;;;;;;7.18;5.50;;;11.70;99.90;;;;;;5092803;28;20040;-67
2023/03/20 09:30:46;;;;;;;7.68;5.30;;;11.50;99.90;;;;;;5079164;28;20121;-67
2023/03/20 09:33:13;;;;;;;7.93;5.20;;;11.50;99.90;;;;;;5104513;27;20040;-65
2023/03/20 09:35:41;;;;;;;6.93;4.93;;;11.60;99.90;;;;;;5084321;27;20514;-65
2023/03/20 09:38:11;;;;;;;8.02;5.38;;;11.70;99.90;;;;;;5096294;27;20428;-66
2023/03/20 09:40:49;;;;;;;8.10;5.60;;;11.70;99.90;;;;;;5105630;28;20044;-66
2023/03/20 09:43:47;;;;;;;9.65;5.45;;;11.90;99.90;;;;;;5082516;28;20114;-66
2023/03/20 09:46:38;;;;;;;7.18;5.38;;;11.90;99.90;;;;;;5100847;28;20075;-66
2023/03/20 09:49:11;;;;;;;8.07;5.20;;;12.20;99.90;;;;;;5097473;28;20605;-68
2023/03/20 09:51:55;;;;;;;8.50;5.47;;;12.30;99.90;;;;;;5090279;28;20046;-67
2023/03/20 09:54:27;;;;;;;7.70;5.32;;;12.00;99.90;;;;;;5101447;28;20060;-65
2023/03/20 09:56:57;;;;;;;7.40;5.25;;;11.90;99.90;;;;;;5049238;28;20138;-66
2023/03/20 09:59:26;;;;;;;7.10;5.10;;;11.90;99.90;;;;;;5100525;28;20590;-66
2023/03/20 10:01:59;;;;;;;8.70;5.40;;;12.00;99.90;;;;;;5085929;28;20043;-64
2023/03/20 10:04:28;;;;;;;7.75;5.45;;;12.00;99.90;;;;;;5101569;28;20046;-67
2023/03/20 10:06:56;;;;;;;8.02;5.10;;;11.90;99.90;;;;;;5109229;28;20054;-66
2023/03/20 10:09:26;;;;;;;8.52;5.32;;;11.80;99.90;;;;;;5071692;28;20154;-67
2023/03/20 10:12:03;;;;;;;9.50;5.40;;;11.80;99.90;;;;;;5094314;28;20048;-67
2023/03/20 10:14:55;;;;;;;8.63;5.35;;;11.90;99.90;;;;;;5075196;28;20044;-68
2023/03/20 10:17:29;;;;;;;9.70;4.90;;;11.90;99.90;;;;;;5087281;28;20031;-66
2023/03/20 10:20:01;;;;;;;6.32;4.30;;;12.20;99.90;;;;;;5106369;28;20042;-66
2023/03/20 10:22:37;;;;;;;6.00;4.13;;;12.10;99.90;;;;;;5095765;28;20054;-67
2023/03/20 10:25:23;;;;;;;7.50;4.57;;;12.30;99.90;;;;;;5106366;28;20051;-68
2023/03/20 10:28:03;;;;;;;7.20;4.50;;;12.40;99.90;;;;;;5088550;28;20051;-67
2023/03/20 10:30:36;;;;;;;8.80;4.78;;;12.50;99.90;;;;;;5072273;28;20419;-69
2023/03/20 10:33:25;;;;;;;10.75;4.82;;;12.50;99.90;;;;;;5060515;28;20079;-68
2023/03/20 10:35:56;;;;;;;6.63;4.57;;;12.60;99.90;;;;;;5091761;28;20039;-67
2023/03/20 10:38:47;;;;;;;6.88;4.85;;;12.30;99.90;;;;;;5068926;28;20040;-66
2023/03/20 10:41:21;;;;;;;10.68;6.53;;;12.50;99.90;;;;;;5085932;28;20092;-68
2023/03/20 10:43:50;;;;;;;6.47;4.40;;;12.60;99.90;;;;;;5069051;28;20044;-69
2023/03/20 10:46:34;;;;;;;9.05;5.05;;;12.60;99.90;;;;;;5068435;28;20050;-71
2023/03/20 10:49:16;;;;;;;6.65;4.72;;;12.60;99.90;;;;;;5054268;28;20407;-69
2023/03/20 10:51:54;;;;;;;8.48;5.47;;;13.00;99.90;;;;;;5052274;28;20051;-68
2023/03/20 10:54:27;;;;;;;7.78;4.82;;;13.00;99.90;;;;;;5106733;28;20580;-65
2023/03/20 10:56:58;;;;;;;7.03;4.47;;;13.30;99.90;;;;;;5079772;28;20078;-67
2023/03/20 10:59:55;;;;;;;6.38;4.28;;;13.40;99.90;;;;;;5075161;28;20129;-68
2023/03/20 11:02:27;;;;;;;6.68;4.40;;;13.40;99.90;;;;;;5088188;28;20052;-66
2023/03/20 11:04:54;;;;;;;;;;;13.50;99.90;;;;;;5074988;28;20036;-66
2023/03/20 11:07:27;;;;;;;8.10;4.43;;;13.50;99.90;;;;;;5092778;28;19928;-67
2023/03/20 11:10:03;;;;;;;6.55;4.88;;;13.40;99.90;;;;;;5096514;28;20104;-66
2023/03/20 11:12:37;;;;;;;7.25;4.18;;;13.00;99.90;;;;;;5109505;28;20467;-68
2023/03/20 11:15:26;;;;;;;7.63;4.40;;;13.10;99.90;;;;;;5092060;28;20043;-71
2023/03/20 11:17:56;;;;;;;8.13;4.28;;;13.10;99.90;;;;;;5048396;28;20048;-66
2023/03/20 11:20:26;;;;;;;7.40;4.18;;;13.10;99.90;;;;;;5076702;28;20429;-66
2023/03/20 11:23:00;;;;;;;6.05;4.22;;;13.20;99.90;;;;;;5110713;28;20043;-68
2023/03/20 11:25:32;;;;;;;6.03;3.67;;;13.30;99.90;;;;;;5075170;28;20067;-67
2023/03/20 11:28:24;;;;;;;5.97;3.80;;;13.40;99.90;;;;;;5073200;28;20142;-66
2023/03/20 11:30:57;;;;;;;;;;;13.60;99.90;;;;;;5057600;28;20075;-67
2023/03/20 11:33:55;;;;;;;8.10;4.40;;;13.70;99.90;;;;;;5082918;28;19939;-68
2023/03/20 11:36:25;;;;;;;8.35;4.07;;;13.60;99.90;;;;;;5051208;28;20064;-70
2023/03/20 11:39:02;;;;;;;7.75;4.53;;;13.50;99.90;;;;;;5092385;28;20043;-71
2023/03/20 11:41:29;;;;;;;6.88;5.00;;;13.50;99.90;;;;;;5085890;28;20055;-70
2023/03/20 11:43:57;;;;;;;7.65;5.35;;;13.50;99.90;;;;;;5088919;28;20102;-70
2023/03/20 11:46:25;;;;;;;5.47;4.30;;;13.70;99.90;;;;;;5106998;28;20070;-71
2023/03/20 11:49:20;;;;;;;5.85;4.30;;;13.80;99.90;;;;;;5088840;28;20119;-70
2023/03/20 11:51:47;;;;;;;10.20;5.82;;;13.70;99.90;;;;;;5100682;27;20043;-70
2023/03/20 11:54:20;;;;;;;8.15;5.57;;;13.80;99.90;;;;;;5093369;28;20063;-71
2023/03/20 11:57:05;;;;;;;8.45;5.85;;;14.00;99.90;;;;;;5075819;28;20131;-69
2023/03/20 11:59:36;;;;;;;7.45;5.07;;;14.20;99.90;;;;;;5090666;28;20059;-71
2023/03/20 12:02:16;;;;;;;7.13;4.70;;;14.20;99.90;;;;;;5074499;28;20040;-71
2023/03/20 12:04:46;;;;;;;6.97;4.75;;;14.20;99.90;;;;;;5093423;28;20503;-69
2023/03/20 12:07:26;;;;;;;9.25;5.55;;;14.10;99.90;;;;;;5107071;28;20043;-70
2023/03/20 12:10:01;;;;;;;8.35;5.78;;;14.00;99.90;;;;;;5089141;28;20040;-69
2023/03/20 12:12:53;;;;;;;8.88;5.78;;;13.80;99.90;;;;;;5075125;28;20038;-70
2023/03/20 12:15:31;;;;;;;7.70;5.75;;;13.80;99.90;;;;;;5089567;28;20062;-71
2023/03/20 12:18:14;;;;;;;8.40;5.80;;;13.80;99.90;;;;;;5089625;28;20150;-70
2023/03/20 12:21:18;;;;;;;6.93;5.43;;;13.90;99.90;;;;;;5083320;28;20489;-70
2023/03/20 12:24:10;;;;;;;7.38;5.50;;;14.20;99.90;;;;;;5087180;28;20047;-72
2023/03/20 12:26:55;;;;;;;7.18;5.30;;;14.70;99.90;;;;;;5106937;28;20059;-71
2023/03/20 12:29:30;;;;;;;7.55;5.90;;;14.90;99.90;;;;;;5097144;28;20043;-72
2023/03/20 12:32:11;;;;;;;6.43;5.07;;;15.20;99.90;;;;;;5072631;28;20524;-71
2023/03/20 12:35:01;;;;;;;7.47;5.45;;;15.20;99.90;;;;;;5102031;28;20063;-70
2023/03/20 12:37:28;;;;;;;9.27;6.57;;;15.40;99.90;;;;;;5092180;28;20063;-70
2023/03/20 12:39:59;;;;;;;9.85;6.10;;;15.40;99.90;;;;;;5071998;28;20036;-71
2023/03/20 12:42:26;;;;;;;7.43;5.65;;;15.40;99.90;;;;;;5094019;28;20043;-71
2023/03/20 12:45:12;;;;;;;8.70;6.55;;;15.00;99.90;;;;;;5088988;28;21307;-69
2023/03/20 12:48:25;;;;;;;10.15;6.80;;;14.70;99.90;;;;;;5087820;28;20101;-71
2023/03/20 12:51:09;;;;;;;10.18;6.38;;;14.50;99.90;;;;;;5068939;28;20052;-72
2023/03/20 12:53:48;;;;;;;9.35;6.00;;;14.50;99.90;;;;;;5064907;28;20052;-71
2023/03/20 12:56:26;;;;;;;8.10;6.03;;;14.30;99.90;;;;;;5056095;28;20123;-70
2023/03/20 12:58:56;;;;;;;8.80;6.25;;;13.90;99.90;;;;;;5084449;28;20348;-70
2023/03/20 13:01:28;;;;;;;8.88;6.53;;;13.60;99.90;;;;;;5086818;28;20073;-71
2023/03/20 13:04:21;;;;;;;12.48;7.78;;;13.40;99.90;;;;;;5075917;28;20537;-70
2023/03/20 13:07:03;;;;;;;8.25;6.00;;;13.20;99.90;;;;;;5066537;28;20436;-69
2023/03/20 13:09:57;;;;;;;8.50;5.18;;;13.00;99.90;;;;;;5101776;28;20071;-70
2023/03/20 13:13:07;;;;;;;8.88;5.47;;;13.00;99.90;;;;;;5058673;28;20146;-70
2023/03/20 13:15:55;;;;;;;8.70;5.50;;;13.00;99.90;;;;;;5008057;28;20172;-68
2023/03/20 13:18:53;;;;;;;8.43;5.55;;;13.10;99.90;;;;;;5006762;28;20181;-69
2023/03/20 13:21:58;;;;;;;9.35;6.00;;;13.00;99.90;;;;;;4977515;28;20046;-69
2023/03/20 13:24:35;;;;;;;10.02;5.45;;;13.00;99.90;;;;;;4982664;28;20050;-68
2023/03/20 13:27:08;;;;;;;9.38;5.40;;;13.00;99.90;;;;;;5006921;28;20322;-69
2023/03/20 13:29:47;;;;;;;7.18;5.30;;;13.00;99.90;;;;;;4983057;28;20105;-70